MMTJ/TIJ METAR and TAF weather

Enter ICAO airport designator
Station Type Date Time Source
MMTJ METAR 2022/11/30 09:40 UTC NOAA

MMTJ 300940Z 00000KT 7SM SKC 09/08 A3003 RMK HZY


Station Type Date Time Source
MMTJ Decoded METAR 2022/11/30 09:40 UTC NOAA

Tijuana International Airport , Mexico (MMTJ) 32-33N 116-58W
Nov 30, 2022 - 04:40 AM EST / 2022.11.30 0940 UTC
Wind: Calm:0
Visibility: 7 mile(s):0
Sky conditions: clear
Temperature: 48 F (9 C)
Dew Point: 46 F (8 C)
Relative Humidity: 93%
Pressure (altimeter): 30.03 in. Hg (1016 hPa)
ob: MMTJ 300940Z 00000KT 7SM SKC 09/08 A3003 RMK HZY
cycle: 9

Station Type Date Time Source
MMTJ TAF 2022/11/30 06:47 UTC NOAA

TAF MMTJ 300339Z 3006/0112 33005KT P6SM SCT030 TX16/3021Z TN10/3012Z
TEMPO 3011/3015 6SM HZ BKN020
FM301800 23010KT P6SM SCT030 SCT250
FM010600 19010KT P6SM SCT020

Example: see airport list